createdAt,value
2023-04-27T00:01:14.579Z,98688.94
2023-04-27T00:03:42.150Z,98692.47
2023-04-27T00:06:09.777Z,98692.84
2023-04-27T00:08:36.713Z,98687.22
2023-04-27T00:11:03.433Z,98687.91
2023-04-27T00:13:29.965Z,98689.00
2023-04-27T00:15:56.489Z,98681.31
2023-04-27T00:18:22.990Z,98687.28
2023-04-27T00:20:49.851Z,98683.75
2023-04-27T00:23:16.418Z,98689.44
2023-04-27T00:25:42.912Z,98685.16
2023-04-27T00:28:09.390Z,98688.03
2023-04-27T00:30:36.111Z,98690.41
2023-04-27T00:33:02.753Z,98683.72
2023-04-27T00:35:29.259Z,98683.72
2023-04-27T00:37:55.730Z,98674.22
2023-04-27T00:40:22.254Z,98681.69
2023-04-27T00:42:48.741Z,98680.94
2023-04-27T00:45:15.379Z,98682.53
2023-04-27T00:47:42.582Z,98684.31
2023-04-27T00:50:10.513Z,98683.53
2023-04-27T00:52:37.483Z,98684.16
2023-04-27T00:55:05.491Z,98683.22
2023-04-27T00:57:34.045Z,98684.41
2023-04-27T01:00:01.540Z,98679.41
2023-04-27T01:02:29.854Z,98678.34
2023-04-27T01:04:57.117Z,98685.25
2023-04-27T01:07:27.022Z,98687.22
2023-04-27T01:09:53.545Z,98690.53
2023-04-27T01:12:20.155Z,98689.97
2023-04-27T01:14:46.664Z,98697.47
2023-04-27T01:17:13.999Z,98701.91
2023-04-27T01:19:41.074Z,98701.84
2023-04-27T01:22:07.703Z,98705.22
2023-04-27T01:24:34.270Z,98704.19
2023-04-27T01:27:01.608Z,98704.03
2023-04-27T01:29:28.320Z,98703.22
2023-04-27T01:31:54.818Z,98704.09
2023-04-27T01:34:21.385Z,98705.50
2023-04-27T01:36:47.874Z,98697.78
2023-04-27T01:39:14.703Z,98700.81
2023-04-27T01:41:41.586Z,98700.81
2023-04-27T01:44:08.119Z,98697.63
2023-04-27T01:46:34.851Z,98694.06
2023-04-27T01:49:01.660Z,98689.50
2023-04-27T01:51:28.234Z,98690.63
2023-04-27T01:53:54.855Z,98691.72
2023-04-27T01:56:21.349Z,98690.53
2023-04-27T01:58:47.865Z,98697.81
2023-04-27T02:03:58.474Z,98699.91
2023-04-27T02:06:25.158Z,98703.22
2023-04-27T02:11:36.087Z,98709.16
2023-04-27T02:14:02.571Z,98704.28
2023-04-27T02:16:29.093Z,98699.75
2023-04-27T02:18:55.624Z,98699.34
2023-04-27T02:24:07.011Z,98709.22
2023-04-27T02:26:33.482Z,98705.91
2023-04-27T02:38:14.064Z,98714.94
2023-04-27T02:41:55.763Z,98715.44
2023-04-27T02:45:37.127Z,98715.59
2023-04-27T02:49:18.511Z,98711.44
2023-04-27T03:00:59.282Z,98709.47
2023-04-27T03:04:40.745Z,98709.31
2023-04-27T03:08:22.082Z,98713.63
2023-04-27T03:12:03.439Z,98710.69
2023-04-27T03:15:45.407Z,98715.06
2023-04-27T03:18:17.940Z,98705.56
2023-04-27T03:20:44.740Z,98702.00
2023-04-27T03:23:12.150Z,98704.47
2023-04-27T03:25:39.116Z,98701.50
2023-04-27T03:28:06.754Z,98695.22
2023-04-27T03:30:33.392Z,98702.56
2023-04-27T03:32:59.885Z,98704.31
2023-04-27T03:35:27.460Z,98700.34
2023-04-27T03:37:53.997Z,98692.41
2023-04-27T03:40:20.764Z,98693.91
2023-04-27T03:42:47.231Z,98695.28
2023-04-27T03:45:13.753Z,98696.06
2023-04-27T03:47:40.431Z,98699.91
2023-04-27T03:50:07.202Z,98699.06
2023-04-27T03:52:33.744Z,98698.44
2023-04-27T03:55:00.410Z,98701.75
2023-04-27T03:57:26.932Z,98695.63
2023-04-27T03:59:53.427Z,98703.34
2023-04-27T04:02:20.205Z,98703.16
2023-04-27T04:04:47.135Z,98704.69
2023-04-27T04:07:13.614Z,98702.69
2023-04-27T04:09:40.127Z,98708.97
2023-04-27T04:12:06.893Z,98710.25
2023-04-27T04:14:33.436Z,98710.97
2023-04-27T04:17:00.027Z,98712.59
2023-04-27T04:19:26.516Z,98707.31
2023-04-27T04:21:54.575Z,98709.84
2023-04-27T04:24:21.553Z,98714.50
2023-04-27T04:26:48.558Z,98712.22
2023-04-27T04:29:15.402Z,98713.94
2023-04-27T04:31:42.237Z,98719.22
2023-04-27T04:34:09.991Z,98720.97
2023-04-27T04:36:36.459Z,98731.03
2023-04-27T04:39:03.334Z,98727.63
2023-04-27T04:41:29.829Z,98736.88
2023-04-27T04:43:56.266Z,98744.38
2023-04-27T04:46:24.632Z,98743.78
2023-04-27T04:51:18.607Z,98742.16
2023-04-27T04:53:45.090Z,98743.41
2023-04-27T04:56:13.613Z,98746.53
2023-04-27T04:58:40.421Z,98738.09
2023-04-27T05:01:07.007Z,98739.25
2023-04-27T05:03:34.155Z,98741.81
2023-04-27T05:06:00.800Z,98750.69
2023-04-27T05:08:27.421Z,98747.03
2023-04-27T05:10:54.717Z,98746.66
2023-04-27T05:13:21.795Z,98744.88
2023-04-27T05:15:48.340Z,98751.75
2023-04-27T05:18:14.885Z,98755.28
2023-04-27T05:20:41.384Z,98752.97
2023-04-27T05:23:07.886Z,98754.53
2023-04-27T05:25:41.384Z,98752.22
2023-04-27T05:28:09.723Z,98752.72
2023-04-27T05:30:37.419Z,98758.94
2023-04-27T05:33:05.128Z,98767.28
2023-04-27T05:35:33.083Z,98760.19
2023-04-27T05:38:00.578Z,98770.31
2023-04-27T05:40:27.490Z,98756.75
2023-04-27T05:42:54.007Z,98765.81
2023-04-27T05:45:21.586Z,98771.63
2023-04-27T05:47:48.143Z,98768.81
2023-04-27T05:50:14.688Z,98771.88
2023-04-27T05:52:41.328Z,98773.66
2023-04-27T05:55:08.447Z,98776.97
2023-04-27T05:57:35.157Z,98778.53
2023-04-27T06:00:02.420Z,98786.63
2023-04-27T06:02:29.118Z,98784.91
2023-04-27T06:04:55.990Z,98782.63
2023-04-27T06:07:27.040Z,98782.38
2023-04-27T06:09:53.543Z,98791.91
2023-04-27T06:12:23.969Z,98784.25
2023-04-27T06:14:50.456Z,98788.13
2023-04-27T06:17:17.050Z,98780.59
2023-04-27T06:19:43.538Z,98790.63
2023-04-27T06:22:11.537Z,98797.25
2023-04-27T06:24:38.124Z,98789.84
2023-04-27T06:27:04.591Z,98789.28
2023-04-27T06:29:31.229Z,98794.03
2023-04-27T06:31:57.727Z,98799.56
2023-04-27T06:34:24.182Z,98800.56
2023-04-27T06:36:50.839Z,98812.34
2023-04-27T06:39:17.554Z,98808.66
2023-04-27T06:41:44.127Z,98808.91
2023-04-27T06:44:10.814Z,98806.34
2023-04-27T06:46:37.447Z,98799.78
2023-04-27T06:49:03.953Z,98800.09
2023-04-27T06:51:30.452Z,98800.59
2023-04-27T06:53:57.251Z,98798.75
2023-04-27T06:56:23.746Z,98795.69
2023-04-27T06:58:50.348Z,98802.53
2023-04-27T07:01:16.908Z,98802.56
2023-04-27T07:03:43.561Z,98797.66
2023-04-27T07:06:10.135Z,98800.72
2023-04-27T07:08:36.957Z,98807.81
2023-04-27T07:11:03.797Z,98804.09
2023-04-27T07:13:30.550Z,98791.09
2023-04-27T07:16:00.914Z,98795.19
2023-04-27T07:18:28.251Z,98791.25
2023-04-27T07:20:55.638Z,98792.09
2023-04-27T07:23:22.402Z,98801.19
2023-04-27T07:25:49.145Z,98788.34
2023-04-27T07:28:16.170Z,98797.06
2023-04-27T07:30:42.774Z,98798.25
2023-04-27T07:33:09.988Z,98797.47
2023-04-27T07:35:37.413Z,98796.22
2023-04-27T07:38:03.896Z,98791.91
2023-04-27T07:40:32.669Z,98787.38
2023-04-27T07:42:59.770Z,98778.59
2023-04-27T07:45:31.926Z,98780.25
2023-04-27T07:48:01.823Z,98776.16
2023-04-27T07:50:30.140Z,98776.84
2023-04-27T07:52:57.421Z,98771.41
2023-04-27T07:55:25.525Z,98777.63
2023-04-27T07:57:56.925Z,98778.56
2023-04-27T08:00:25.361Z,98774.84
2023-04-27T08:02:55.036Z,98768.44
2023-04-27T08:05:22.194Z,98779.63
2023-04-27T08:07:49.187Z,98777.78
2023-04-27T08:10:16.232Z,98777.63
2023-04-27T08:12:42.702Z,98770.31
2023-04-27T08:15:10.545Z,98778.78
2023-04-27T08:17:38.807Z,98771.50
2023-04-27T08:20:06.888Z,98772.50
2023-04-27T08:22:33.471Z,98772.22
2023-04-27T08:25:00.244Z,98763.75
2023-04-27T08:27:26.709Z,98768.19
2023-04-27T08:29:53.163Z,98768.47
2023-04-27T08:32:19.669Z,98764.94
2023-04-27T08:34:46.454Z,98770.88
2023-04-27T08:37:12.946Z,98767.47
2023-04-27T08:39:40.559Z,98764.84
2023-04-27T08:42:14.102Z,98766.47
2023-04-27T08:44:45.011Z,98761.84
2023-04-27T08:47:12.183Z,98766.00
2023-04-27T08:49:38.863Z,98768.59
2023-04-27T08:52:12.711Z,98759.84
2023-04-27T08:54:39.562Z,98757.66
2023-04-27T08:57:11.335Z,98756.81
2023-04-27T08:59:38.668Z,98760.22
2023-04-27T09:02:05.825Z,98755.78
2023-04-27T09:04:40.271Z,98756.22
2023-04-27T09:07:14.638Z,98752.34
2023-04-27T09:09:42.663Z,98760.34
2023-04-27T09:12:24.617Z,98754.56
2023-04-27T09:15:06.756Z,98756.34
2023-04-27T09:17:33.861Z,98753.31
2023-04-27T09:20:12.871Z,98756.13
2023-04-27T09:22:44.521Z,98755.19
2023-04-27T09:25:22.937Z,98745.31
2023-04-27T09:27:49.380Z,98741.75
2023-04-27T09:30:16.433Z,98736.31
2023-04-27T09:33:09.321Z,98735.22
2023-04-27T09:35:35.764Z,98729.44
2023-04-27T09:38:02.386Z,98723.22
2023-04-27T09:40:31.104Z,98725.47
2023-04-27T09:43:01.698Z,98721.03
2023-04-27T09:45:29.548Z,98715.88
2023-04-27T09:47:56.277Z,98710.66
2023-04-27T09:50:23.028Z,98712.09
2023-04-27T09:52:49.889Z,98707.75
2023-04-27T09:55:24.551Z,98707.78
2023-04-27T09:58:20.770Z,98709.56
2023-04-27T10:01:40.816Z,98706.94
2023-04-27T10:04:44.389Z,98699.47
2023-04-27T10:07:14.244Z,98704.63
2023-04-27T10:09:46.269Z,98703.25
2023-04-27T10:12:27.421Z,98707.66
2023-04-27T10:14:57.310Z,98699.72
2023-04-27T10:17:35.683Z,98696.34
2023-04-27T10:20:09.140Z,98709.22
2023-04-27T10:22:52.465Z,98711.34
2023-04-27T10:25:24.169Z,98706.00
2023-04-27T10:27:59.490Z,98697.31
2023-04-27T10:30:33.788Z,98696.81
2023-04-27T10:33:11.871Z,98700.03
2023-04-27T10:35:42.735Z,98693.00
2023-04-27T10:38:21.787Z,98683.19
2023-04-27T10:41:04.919Z,98679.41
2023-04-27T10:43:34.907Z,98681.59
2023-04-27T10:46:15.119Z,98678.88
2023-04-27T10:48:45.271Z,98672.06
2023-04-27T10:51:17.949Z,98673.09
2023-04-27T10:53:44.679Z,98668.44
2023-04-27T10:56:11.289Z,98662.81
2023-04-27T11:01:09.222Z,98661.50
2023-04-27T11:03:36.397Z,98654.44
2023-04-27T11:06:05.966Z,98660.66
2023-04-27T11:08:33.967Z,98651.53
2023-04-27T11:11:01.602Z,98652.09
2023-04-27T11:13:28.625Z,98647.47
2023-04-27T11:15:58.761Z,98648.63
2023-04-27T11:18:30.801Z,98643.72
2023-04-27T11:21:18.731Z,98633.50
2023-04-27T11:23:45.409Z,98632.72
2023-04-27T11:26:16.861Z,98642.63
2023-04-27T11:29:05.299Z,98639.81
2023-04-27T11:31:43.785Z,98643.16
2023-04-27T11:34:17.298Z,98642.16
2023-04-27T11:36:44.119Z,98640.97
2023-04-27T11:39:19.579Z,98640.97
2023-04-27T11:41:46.518Z,98637.47
2023-04-27T11:44:13.332Z,98632.41
2023-04-27T11:46:45.085Z,98633.97
2023-04-27T11:49:12.701Z,98633.97
2023-04-27T11:51:40.439Z,98629.63
2023-04-27T11:54:08.013Z,98630.59
2023-04-27T11:56:42.840Z,98632.16
2023-04-27T11:59:21.527Z,98627.81
2023-04-27T12:01:48.284Z,98623.19
2023-04-27T12:04:15.368Z,98627.97
2023-04-27T12:06:42.261Z,98629.25
2023-04-27T12:09:08.838Z,98622.66
2023-04-27T12:11:35.623Z,98623.63
2023-04-27T12:14:02.769Z,98616.63
2023-04-27T12:16:29.641Z,98624.75
2023-04-27T12:18:56.106Z,98623.78
2023-04-27T12:21:22.654Z,98613.22
2023-04-27T12:23:49.334Z,98612.56
2023-04-27T12:26:15.811Z,98605.13
2023-04-27T12:28:42.482Z,98606.59
2023-04-27T12:31:13.101Z,98610.25
2023-04-27T12:33:39.626Z,98602.63
2023-04-27T12:36:06.539Z,98600.69
2023-04-27T12:38:33.075Z,98607.25
2023-04-27T12:41:02.243Z,98603.91
2023-04-27T12:43:28.801Z,98598.13
2023-04-27T12:45:55.349Z,98591.59
2023-04-27T12:48:23.186Z,98594.66
2023-04-27T12:50:49.774Z,98587.00
2023-04-27T12:53:16.335Z,98582.75
2023-04-27T12:55:42.825Z,98580.81
2023-04-27T12:58:09.747Z,98575.78
2023-04-27T13:00:36.279Z,98574.09
2023-04-27T13:03:03.006Z,98568.88
2023-04-27T13:05:31.757Z,98575.31
2023-04-27T13:07:58.652Z,98572.09
2023-04-27T13:10:25.234Z,98580.22
2023-04-27T13:12:51.921Z,98575.88
2023-04-27T13:15:18.588Z,98575.16
2023-04-27T13:17:45.070Z,98582.00
2023-04-27T13:20:12.333Z,98577.19
2023-04-27T13:22:40.598Z,98576.91
2023-04-27T13:25:08.367Z,98573.25
2023-04-27T13:27:35.583Z,98566.34
2023-04-27T13:30:02.068Z,98570.41
2023-04-27T13:32:28.543Z,98568.00
2023-04-27T13:34:55.026Z,98567.50
2023-04-27T13:37:22.026Z,98555.13
2023-04-27T13:39:48.489Z,98565.81
2023-04-27T13:42:15.005Z,98559.88
2023-04-27T13:44:41.504Z,98576.69
2023-04-27T13:47:08.185Z,98565.34
2023-04-27T13:49:34.706Z,98563.56
2023-04-27T13:52:01.368Z,98565.03
2023-04-27T13:54:28.507Z,98561.16
2023-04-27T13:56:54.975Z,98552.44
2023-04-27T13:59:21.734Z,98551.50
2023-04-27T14:01:48.401Z,98553.41
2023-04-27T14:04:15.039Z,98548.59
2023-04-27T14:06:41.631Z,98554.09
2023-04-27T14:09:09.193Z,98551.25
2023-04-27T14:11:45.065Z,98550.00
2023-04-27T14:14:19.184Z,98551.91
2023-04-27T14:16:46.280Z,98550.69
2023-04-27T14:19:15.966Z,98564.44
2023-04-27T14:21:42.739Z,98553.47
2023-04-27T14:24:09.211Z,98552.03
2023-04-27T14:26:35.885Z,98547.94
2023-04-27T14:29:02.322Z,98544.44
2023-04-27T14:31:29.918Z,98544.84
2023-04-27T14:33:59.477Z,98539.03
2023-04-27T14:36:27.233Z,98529.97
2023-04-27T14:38:53.712Z,98539.88
2023-04-27T14:41:20.202Z,98542.03
2023-04-27T14:43:48.365Z,98535.59
2023-04-27T14:46:20.970Z,98538.72
2023-04-27T14:48:48.884Z,98544.91
2023-04-27T14:51:16.335Z,98539.72
2023-04-27T14:53:43.848Z,98540.34
2023-04-27T14:56:10.859Z,98534.72
2023-04-27T14:58:37.288Z,98547.56
2023-04-27T15:01:03.996Z,98541.50
2023-04-27T15:03:33.817Z,98536.91
2023-04-27T15:06:01.913Z,98532.47
2023-04-27T15:08:30.676Z,98534.09
2023-04-27T15:11:00.011Z,98520.63
2023-04-27T15:13:27.483Z,98521.06
2023-04-27T15:15:56.460Z,98521.31
2023-04-27T15:18:23.944Z,98516.47
2023-04-27T15:20:59.617Z,98509.38
2023-04-27T15:23:27.686Z,98504.25
2023-04-27T15:25:58.716Z,98488.91
2023-04-27T15:28:25.834Z,98483.66
2023-04-27T15:30:52.461Z,98484.47
2023-04-27T15:33:19.232Z,98480.03
2023-04-27T15:35:45.840Z,98484.28
2023-04-27T15:38:14.542Z,98481.13
2023-04-27T15:40:41.170Z,98489.50
2023-04-27T15:43:07.738Z,98481.06
2023-04-27T15:45:34.293Z,98484.47
2023-04-27T15:48:01.257Z,98488.47
2023-04-27T15:50:27.883Z,98476.16
2023-04-27T15:52:54.491Z,98487.38
2023-04-27T15:55:22.062Z,98479.47
2023-04-27T15:57:48.549Z,98485.09
2023-04-27T16:00:16.802Z,98477.34
2023-04-27T16:02:43.789Z,98481.53
2023-04-27T16:05:10.787Z,98478.34
2023-04-27T16:07:39.650Z,98474.50
2023-04-27T16:10:07.707Z,98472.41
2023-04-27T16:12:34.673Z,98458.50
2023-04-27T16:15:01.455Z,98459.06
2023-04-27T16:17:31.685Z,98466.38
2023-04-27T16:19:58.366Z,98457.69
2023-04-27T16:22:25.210Z,98454.47
2023-04-27T16:24:51.897Z,98466.03
2023-04-27T16:27:20.468Z,98457.69
2023-04-27T16:29:47.489Z,98458.47
2023-04-27T16:32:14.050Z,98456.38
2023-04-27T16:34:40.577Z,98458.47
2023-04-27T16:37:07.193Z,98457.22
2023-04-27T16:39:33.611Z,98457.41
2023-04-27T16:42:00.224Z,98459.69
2023-04-27T16:44:26.844Z,98459.34
2023-04-27T16:46:53.580Z,98454.84
2023-04-27T16:49:20.081Z,98453.41
2023-04-27T16:51:46.628Z,98453.94
2023-04-27T16:54:16.245Z,98452.13
2023-04-27T16:56:42.827Z,98453.31
2023-04-27T16:59:12.184Z,98447.31
2023-04-27T17:01:39.250Z,98451.66
2023-04-27T17:04:05.989Z,98447.97
2023-04-27T17:06:32.895Z,98453.84
2023-04-27T17:08:59.389Z,98452.81
2023-04-27T17:11:26.303Z,98450.28
2023-04-27T17:13:52.907Z,98451.22
2023-04-27T17:16:20.016Z,98451.50
2023-04-27T17:18:47.017Z,98446.31
2023-04-27T17:21:13.896Z,98446.25
2023-04-27T17:23:46.414Z,98449.25
2023-04-27T17:26:15.710Z,98444.88
2023-04-27T17:28:42.182Z,98443.84
2023-04-27T17:31:08.677Z,98434.47
2023-04-27T17:33:35.355Z,98434.75
2023-04-27T17:36:01.973Z,98436.50
2023-04-27T17:38:28.465Z,98437.38
2023-04-27T17:40:54.908Z,98434.03
2023-04-27T17:43:21.380Z,98431.66
2023-04-27T17:45:47.859Z,98432.34
2023-04-27T17:48:14.393Z,98430.66
2023-04-27T17:50:41.036Z,98432.94
2023-04-27T17:53:07.685Z,98432.69
2023-04-27T17:55:34.335Z,98432.75
2023-04-27T17:58:03.525Z,98431.94
2023-04-27T18:00:30.704Z,98425.13
2023-04-27T18:02:57.359Z,98422.31
2023-04-27T18:05:24.087Z,98422.81
2023-04-27T18:07:50.597Z,98417.34
2023-04-27T18:10:17.149Z,98419.03
2023-04-27T18:12:43.730Z,98422.25
2023-04-27T18:15:10.534Z,98418.06
2023-04-27T18:17:37.149Z,98422.53
2023-04-27T18:20:11.275Z,98422.28
2023-04-27T18:22:40.078Z,98422.00
2023-04-27T18:25:09.136Z,98427.03
2023-04-27T18:27:37.417Z,98423.34
2023-04-27T18:30:06.233Z,98423.56
2023-04-27T18:32:34.764Z,98430.94
2023-04-27T18:35:01.362Z,98430.75
2023-04-27T18:37:28.147Z,98425.84
2023-04-27T18:39:54.663Z,98421.75
2023-04-27T18:42:23.478Z,98429.44
2023-04-27T18:44:55.131Z,98438.59
2023-04-27T18:47:21.841Z,98433.72
2023-04-27T18:49:48.559Z,98437.88
2023-04-27T18:52:15.419Z,98432.25
2023-04-27T18:54:42.307Z,98434.25
2023-04-27T18:57:08.930Z,98436.06
2023-04-27T18:59:39.154Z,98440.66
2023-04-27T19:02:07.418Z,98430.84
2023-04-27T19:04:35.281Z,98423.88
2023-04-27T19:07:02.304Z,98429.28
2023-04-27T19:09:29.022Z,98425.19
2023-04-27T19:12:02.932Z,98423.97
2023-04-27T19:14:31.707Z,98428.06
2023-04-27T19:16:58.380Z,98424.19
2023-04-27T19:19:26.424Z,98431.53
2023-04-27T19:21:58.182Z,98428.66
2023-04-27T19:24:24.678Z,98434.44
2023-04-27T19:26:51.304Z,98439.09
2023-04-27T19:29:18.031Z,98429.59
2023-04-27T19:31:44.682Z,98437.09
2023-04-27T19:34:11.398Z,98444.91
2023-04-27T19:36:37.897Z,98437.91
2023-04-27T19:39:04.472Z,98435.28
2023-04-27T19:41:30.950Z,98434.19
2023-04-27T19:43:57.478Z,98429.38
2023-04-27T19:46:24.608Z,98426.44
2023-04-27T19:48:53.407Z,98430.66
2023-04-27T19:51:19.991Z,98426.31
2023-04-27T19:53:46.705Z,98426.31
2023-04-27T19:56:13.266Z,98431.63
2023-04-27T19:58:39.726Z,98430.69
2023-04-27T20:01:06.528Z,98423.50
2023-04-27T20:03:33.257Z,98434.03
2023-04-27T20:05:59.914Z,98431.75
2023-04-27T20:08:26.601Z,98436.34
2023-04-27T20:10:53.944Z,98438.13
2023-04-27T20:13:20.381Z,98436.22
2023-04-27T20:15:46.987Z,98435.25
2023-04-27T20:18:13.499Z,98431.16
2023-04-27T20:20:41.892Z,98435.13
2023-04-27T20:23:08.461Z,98442.59
2023-04-27T20:25:34.978Z,98436.81
2023-04-27T20:28:01.529Z,98429.63
2023-04-27T20:30:28.469Z,98430.31
2023-04-27T20:32:56.434Z,98433.56
2023-04-27T20:35:24.217Z,98432.13
2023-04-27T20:37:52.121Z,98425.53
2023-04-27T20:40:19.110Z,98433.81
2023-04-27T20:42:46.304Z,98429.97
2023-04-27T20:45:13.270Z,98422.66
2023-04-27T20:47:40.482Z,98413.91
2023-04-27T20:50:08.000Z,98414.50
2023-04-27T20:52:35.349Z,98411.72
2023-04-27T20:55:03.678Z,98414.13
2023-04-27T20:57:30.565Z,98417.97
2023-04-27T20:59:57.387Z,98407.63
2023-04-27T21:02:24.329Z,98405.97
2023-04-27T21:04:51.902Z,98410.03
2023-04-27T21:07:18.792Z,98405.59
2023-04-27T21:09:45.375Z,98409.50
2023-04-27T21:12:14.463Z,98407.81
2023-04-27T21:14:41.043Z,98413.59
2023-04-27T21:17:07.638Z,98415.03
2023-04-27T21:19:34.206Z,98414.78
2023-04-27T21:22:01.268Z,98411.66
2023-04-27T21:24:27.841Z,98410.44
2023-04-27T21:26:54.395Z,98410.44
2023-04-27T21:29:20.917Z,98406.13
2023-04-27T21:31:47.359Z,98412.41
2023-04-27T21:34:14.091Z,98406.00
2023-04-27T21:36:40.868Z,98400.97
2023-04-27T21:39:07.371Z,98405.66
2023-04-27T21:41:39.025Z,98398.69
2023-04-27T21:44:05.614Z,98399.19
2023-04-27T21:46:32.112Z,98399.88
2023-04-27T21:48:58.657Z,98392.81
2023-04-27T21:51:25.184Z,98387.38
2023-04-27T21:53:51.673Z,98383.53
2023-04-27T21:56:18.108Z,98375.75
2023-04-27T21:58:44.636Z,98375.75
2023-04-27T22:01:12.888Z,98370.13
2023-04-27T22:03:39.604Z,98368.31
2023-04-27T22:06:07.382Z,98369.16
2023-04-27T22:08:34.947Z,98366.50
2023-04-27T22:11:01.423Z,98361.22
2023-04-27T22:13:27.924Z,98362.69
2023-04-27T22:15:54.458Z,98356.91
2023-04-27T22:18:21.127Z,98354.88
2023-04-27T22:20:47.641Z,98353.22
2023-04-27T22:23:14.141Z,98356.94
2023-04-27T22:25:42.789Z,98347.81
2023-04-27T22:28:10.689Z,98350.47
2023-04-27T22:30:40.636Z,98352.38
2023-04-27T22:33:08.586Z,98344.81
2023-04-27T22:35:36.346Z,98346.84
2023-04-27T22:38:02.959Z,98346.38
2023-04-27T22:40:29.407Z,98343.00
2023-04-27T22:42:56.224Z,98344.69
2023-04-27T22:45:23.674Z,98335.09
2023-04-27T22:47:50.791Z,98338.44
2023-04-27T22:50:17.606Z,98330.53
2023-04-27T22:52:44.379Z,98325.03
2023-04-27T22:55:12.857Z,98331.00
2023-04-27T22:57:41.376Z,98319.50
2023-04-27T23:00:11.835Z,98320.94
2023-04-27T23:02:40.429Z,98326.91
2023-04-27T23:05:07.990Z,98330.97
2023-04-27T23:07:35.097Z,98324.03
2023-04-27T23:10:02.895Z,98320.44
2023-04-27T23:12:30.680Z,98321.66
2023-04-27T23:14:58.161Z,98318.63
2023-04-27T23:17:30.525Z,98312.28
2023-04-27T23:19:59.131Z,98310.63
2023-04-27T23:22:26.404Z,98307.00
2023-04-27T23:24:54.097Z,98305.94
2023-04-27T23:27:22.429Z,98302.94
2023-04-27T23:29:49.033Z,98301.84
2023-04-27T23:32:15.583Z,98294.03
2023-04-27T23:34:42.108Z,98288.28
2023-04-27T23:37:08.762Z,98291.06
2023-04-27T23:39:35.295Z,98287.31
2023-04-27T23:42:01.821Z,98282.31
2023-04-27T23:44:28.317Z,98286.72
2023-04-27T23:46:54.997Z,98281.81
2023-04-27T23:49:21.456Z,98277.50
2023-04-27T23:51:49.837Z,98271.00
2023-04-27T23:54:16.588Z,98271.00
2023-04-27T23:56:43.335Z,98277.25
2023-04-27T23:59:10.951Z,98281.31
